createdAt,value
2023-02-13T00:01:25.990Z,101135.25
2023-02-13T00:03:54.654Z,101130.98
2023-02-13T00:06:23.703Z,101138.36
2023-02-13T00:08:53.932Z,101144.02
2023-02-13T00:11:22.099Z,101144.50
2023-02-13T00:13:50.419Z,101141.98
2023-02-13T00:16:18.672Z,101139.11
2023-02-13T00:18:46.909Z,101141.39
2023-02-13T00:21:15.647Z,101152.83
2023-02-13T00:23:44.181Z,101155.12
2023-02-13T00:26:17.346Z,101155.96
2023-02-13T00:28:48.178Z,101157.38
2023-02-13T00:31:21.900Z,101164.64
2023-02-13T00:33:50.631Z,101161.61
2023-02-13T00:36:21.175Z,101162.70
2023-02-13T00:38:50.408Z,101157.69
2023-02-13T00:41:18.852Z,101154.64
2023-02-13T00:43:48.065Z,101147.13
2023-02-13T00:46:17.870Z,101150.23
2023-02-13T00:48:46.564Z,101152.98
2023-02-13T00:51:14.795Z,101161.79
2023-02-13T00:53:43.137Z,101163.58
2023-02-13T00:56:11.326Z,101161.90
2023-02-13T00:58:39.736Z,101159.64
2023-02-13T01:01:07.949Z,101151.96
2023-02-13T01:03:38.645Z,101150.17
2023-02-13T01:06:08.076Z,101149.46
2023-02-13T01:08:39.426Z,101148.88
2023-02-13T01:11:07.823Z,101150.58
2023-02-13T01:13:37.310Z,101145.81
2023-02-13T01:16:05.804Z,101137.05
2023-02-13T01:18:33.997Z,101132.92
2023-02-13T01:21:06.014Z,101132.66
2023-02-13T01:23:36.951Z,101129.70
2023-02-13T01:26:06.779Z,101130.29
2023-02-13T01:28:35.408Z,101129.80
2023-02-13T01:31:03.892Z,101128.77
2023-02-13T01:33:32.741Z,101125.02
2023-02-13T01:36:06.560Z,101123.84
2023-02-13T01:38:34.965Z,101126.87
2023-02-13T01:41:03.263Z,101127.13
2023-02-13T01:43:55.229Z,101126.71
2023-02-13T01:46:43.348Z,101117.73
2023-02-13T01:49:25.674Z,101123.61
2023-02-13T01:51:56.673Z,101115.67
2023-02-13T01:54:31.408Z,101112.73
2023-02-13T01:57:18.808Z,101108.05
2023-02-13T01:59:51.900Z,101111.87
2023-02-13T02:02:21.775Z,101115.06
2023-02-13T02:04:51.458Z,101107.33
2023-02-13T02:07:26.620Z,101104.13
2023-02-13T02:10:08.727Z,101101.30
2023-02-13T02:12:43.048Z,101100.95
2023-02-13T02:15:12.505Z,101099.78
2023-02-13T02:17:40.894Z,101094.97
2023-02-13T02:20:32.411Z,101097.38
2023-02-13T02:23:21.828Z,101090.84
2023-02-13T02:26:19.236Z,101087.55
2023-02-13T02:29:15.611Z,101085.95
2023-02-13T02:32:09.029Z,101088.14
2023-02-13T02:34:52.037Z,101092.25
2023-02-13T02:37:39.150Z,101091.44
2023-02-13T02:40:19.337Z,101092.11
2023-02-13T02:43:12.281Z,101096.64
2023-02-13T02:46:09.749Z,101097.76
2023-02-13T02:49:06.277Z,101100.60
2023-02-13T02:51:54.464Z,101100.95
2023-02-13T02:54:49.635Z,101098.90
2023-02-13T02:57:26.685Z,101101.67
2023-02-13T03:00:25.738Z,101112.79
2023-02-13T03:03:13.385Z,101120.06
2023-02-13T03:06:06.056Z,101123.02
2023-02-13T03:08:58.998Z,101125.23
2023-02-13T03:12:00.669Z,101127.77
2023-02-13T03:14:36.934Z,101128.96
2023-02-13T03:17:27.626Z,101127.27
2023-02-13T03:20:59.039Z,101132.48
2023-02-13T03:23:39.092Z,101133.90
2023-02-13T03:26:45.619Z,101143.12
2023-02-13T03:29:56.488Z,101149.58
2023-02-13T03:32:42.375Z,101155.30
2023-02-13T03:35:54.368Z,101148.52
2023-02-13T03:38:32.754Z,101143.77
2023-02-13T03:41:19.377Z,101146.09
2023-02-13T03:44:08.551Z,101146.85
2023-02-13T03:46:42.127Z,101147.02
2023-02-13T03:50:11.793Z,101147.21
2023-02-13T03:53:10.601Z,101159.89
2023-02-13T03:56:06.183Z,101163.60
2023-02-13T03:58:59.872Z,101164.61
2023-02-13T04:01:34.840Z,101173.63
2023-02-13T04:04:22.537Z,101179.14
2023-02-13T04:07:10.884Z,101188.73
2023-02-13T04:09:43.017Z,101195.39
2023-02-13T04:12:24.004Z,101199.16
2023-02-13T04:15:04.834Z,101202.23
2023-02-13T04:17:39.082Z,101208.27
2023-02-13T04:20:11.028Z,101209.26
2023-02-13T04:22:47.050Z,101212.85
2023-02-13T04:25:17.768Z,101213.10
2023-02-13T04:27:46.843Z,101212.57
2023-02-13T04:30:20.366Z,101211.83
2023-02-13T04:32:51.906Z,101212.81
2023-02-13T04:35:23.344Z,101219.05
2023-02-13T04:37:51.881Z,101219.73
2023-02-13T04:40:25.833Z,101218.98
2023-02-13T04:42:56.716Z,101226.73
2023-02-13T04:45:25.221Z,101228.24
2023-02-13T04:47:56.912Z,101223.72
2023-02-13T04:50:34.218Z,101226.52
2023-02-13T04:53:08.007Z,101220.91
2023-02-13T04:55:36.542Z,101220.86
2023-02-13T04:58:07.498Z,101219.96
2023-02-13T05:00:38.318Z,101221.95
2023-02-13T05:03:09.027Z,101222.80
2023-02-13T05:05:40.707Z,101224.52
2023-02-13T05:08:15.749Z,101226.73
2023-02-13T05:10:49.911Z,101233.13
2023-02-13T05:13:23.948Z,101227.73
2023-02-13T05:15:56.068Z,101230.48
2023-02-13T05:18:24.842Z,101235.31
2023-02-13T05:21:12.044Z,101238.38
2023-02-13T05:23:43.747Z,101242.26
2023-02-13T05:26:14.830Z,101243.89
2023-02-13T05:29:02.064Z,101246.88
2023-02-13T05:31:33.837Z,101247.40
2023-02-13T05:34:05.917Z,101249.56
2023-02-13T05:36:37.217Z,101246.59
2023-02-13T05:39:06.154Z,101246.06
2023-02-13T05:41:40.008Z,101246.28
2023-02-13T05:44:12.186Z,101250.89
2023-02-13T05:46:49.754Z,101251.59
2023-02-13T05:49:22.974Z,101255.48
2023-02-13T05:51:53.770Z,101257.16
2023-02-13T05:54:22.192Z,101254.95
2023-02-13T05:56:50.701Z,101259.64
2023-02-13T05:59:24.109Z,101260.76
2023-02-13T06:01:55.576Z,101258.61
2023-02-13T06:04:30.114Z,101260.08
2023-02-13T06:07:01.105Z,101256.32
2023-02-13T06:09:31.744Z,101258.85
2023-02-13T06:12:02.866Z,101257.61
2023-02-13T06:14:33.564Z,101260.89
2023-02-13T06:17:08.232Z,101264.50
2023-02-13T06:19:36.868Z,101259.79
2023-02-13T06:22:08.436Z,101266.61
2023-02-13T06:24:47.848Z,101262.13
2023-02-13T06:27:16.116Z,101263.78
2023-02-13T06:29:49.571Z,101263.98
2023-02-13T06:32:20.176Z,101257.61
2023-02-13T06:34:48.322Z,101258.67
2023-02-13T06:37:19.621Z,101254.37
2023-02-13T06:39:51.272Z,101255.50
2023-02-13T06:42:22.868Z,101257.42
2023-02-13T06:44:56.681Z,101262.56
2023-02-13T06:47:33.890Z,101260.78
2023-02-13T06:50:20.237Z,101261.59
2023-02-13T06:52:57.638Z,101260.89
2023-02-13T06:55:26.080Z,101262.52
2023-02-13T06:57:57.943Z,101262.83
2023-02-13T07:00:29.532Z,101260.09
2023-02-13T07:03:07.219Z,101259.74
2023-02-13T07:05:39.513Z,101258.77
2023-02-13T07:08:11.552Z,101264.34
2023-02-13T07:10:42.053Z,101263.65
2023-02-13T07:13:15.717Z,101260.45
2023-02-13T07:15:49.855Z,101257.46
2023-02-13T07:18:21.311Z,101257.40
2023-02-13T07:20:51.869Z,101257.79
2023-02-13T07:23:23.262Z,101252.17
2023-02-13T07:25:51.779Z,101248.34
2023-02-13T07:28:23.403Z,101239.91
2023-02-13T07:30:56.429Z,101237.73
2023-02-13T07:33:27.619Z,101236.14
2023-02-13T07:35:56.236Z,101231.36
2023-02-13T07:38:24.776Z,101234.48
2023-02-13T07:40:53.451Z,101231.90
2023-02-13T07:43:25.127Z,101233.75
2023-02-13T07:46:13.185Z,101237.55
2023-02-13T07:48:47.244Z,101233.65
2023-02-13T07:51:16.570Z,101229.86
2023-02-13T07:53:47.669Z,101224.25
2023-02-13T07:56:21.171Z,101221.31
2023-02-13T07:58:52.161Z,101227.24
2023-02-13T08:01:23.347Z,101227.85
2023-02-13T08:03:52.030Z,101226.55
2023-02-13T08:06:26.140Z,101226.11
2023-02-13T08:09:14.467Z,101218.98
2023-02-13T08:11:59.554Z,101220.10
2023-02-13T08:14:32.996Z,101208.27
2023-02-13T08:17:02.244Z,101210.23
2023-02-13T08:19:30.673Z,101202.78
2023-02-13T08:22:01.692Z,101196.99
2023-02-13T08:24:32.515Z,101192.62
2023-02-13T08:27:00.749Z,101196.30
2023-02-13T08:29:37.302Z,101194.79
2023-02-13T08:32:07.211Z,101192.05
2023-02-13T08:34:35.835Z,101189.11
2023-02-13T08:37:11.769Z,101191.82
2023-02-13T08:39:44.038Z,101193.58
2023-02-13T08:42:16.386Z,101184.66
2023-02-13T08:44:47.607Z,101180.45
2023-02-13T08:47:18.937Z,101177.75
2023-02-13T08:49:50.636Z,101175.64
2023-02-13T08:52:22.558Z,101171.98
2023-02-13T08:54:50.754Z,101167.23
2023-02-13T08:57:21.321Z,101164.60
2023-02-13T08:59:55.859Z,101160.23
2023-02-13T09:02:24.662Z,101161.64
2023-02-13T09:04:53.406Z,101161.94
2023-02-13T09:07:28.973Z,101167.92
2023-02-13T09:09:57.555Z,101164.01
2023-02-13T09:12:26.340Z,101164.59
2023-02-13T09:14:56.998Z,101159.72
2023-02-13T09:17:25.416Z,101162.79
2023-02-13T09:19:53.876Z,101156.85
2023-02-13T09:22:25.070Z,101160.66
2023-02-13T09:24:53.418Z,101157.00
2023-02-13T09:27:21.669Z,101160.20
2023-02-13T09:29:53.157Z,101157.23
2023-02-13T09:32:24.846Z,101157.86
2023-02-13T09:35:06.584Z,101158.17
2023-02-13T09:37:41.399Z,101156.44
2023-02-13T09:40:42.497Z,101159.71
2023-02-13T09:43:25.333Z,101151.81
2023-02-13T09:46:11.977Z,101149.96
2023-02-13T09:48:46.087Z,101143.20
2023-02-13T09:51:19.564Z,101142.02
2023-02-13T09:53:55.735Z,101146.80
2023-02-13T09:57:07.558Z,101148.06
2023-02-13T10:00:18.625Z,101146.34
2023-02-13T10:03:24.176Z,101132.20
2023-02-13T10:06:15.000Z,101129.20
2023-02-13T10:09:08.062Z,101123.02
2023-02-13T10:12:33.231Z,101122.31
2023-02-13T10:15:53.844Z,101112.75
2023-02-13T10:18:37.842Z,101105.77
2023-02-13T10:21:24.599Z,101106.33
2023-02-13T10:24:10.397Z,101105.23
2023-02-13T10:26:49.962Z,101100.60
2023-02-13T10:29:54.269Z,101102.63
2023-02-13T10:32:32.686Z,101103.29
2023-02-13T10:35:04.343Z,101103.90
2023-02-13T10:37:32.665Z,101101.97
2023-02-13T10:40:01.882Z,101098.14
2023-02-13T10:43:00.552Z,101098.74
2023-02-13T10:46:14.796Z,101094.13
2023-02-13T10:48:57.419Z,101085.72
2023-02-13T10:52:01.068Z,101081.06
2023-02-13T10:55:01.522Z,101076.49
2023-02-13T10:58:09.877Z,101075.67
2023-02-13T11:01:08.502Z,101075.96
2023-02-13T11:03:42.463Z,101072.42
2023-02-13T11:06:24.421Z,101074.20
2023-02-13T11:08:55.904Z,101067.33
2023-02-13T11:11:33.390Z,101067.45
2023-02-13T11:14:26.192Z,101062.71
2023-02-13T11:16:59.026Z,101057.54
2023-02-13T11:19:28.018Z,101056.64
2023-02-13T11:22:11.619Z,101051.94
2023-02-13T11:24:42.823Z,101056.44
2023-02-13T11:27:14.013Z,101049.34
2023-02-13T11:29:53.348Z,101047.60
2023-02-13T11:32:26.454Z,101046.96
2023-02-13T11:34:55.639Z,101042.24
2023-02-13T11:37:29.777Z,101038.20
2023-02-13T11:40:00.377Z,101032.44
2023-02-13T11:42:32.793Z,101033.27
2023-02-13T11:45:20.534Z,101036.18
2023-02-13T11:47:52.211Z,101032.88
2023-02-13T11:50:23.822Z,101031.07
2023-02-13T11:53:25.597Z,101028.57
2023-02-13T11:56:20.615Z,101024.15
2023-02-13T11:59:01.784Z,101022.29
2023-02-13T12:01:30.723Z,101019.23
2023-02-13T12:04:18.806Z,101011.75
2023-02-13T12:07:15.362Z,101011.56
2023-02-13T12:09:47.720Z,101006.34
2023-02-13T12:12:29.394Z,101003.87
2023-02-13T12:14:58.469Z,100997.86
2023-02-13T12:17:32.068Z,100990.78
2023-02-13T12:20:04.510Z,100984.73
2023-02-13T12:22:45.519Z,100981.33
2023-02-13T12:25:43.248Z,100979.96
2023-02-13T12:28:28.679Z,100976.42
2023-02-13T12:31:26.941Z,100969.53
2023-02-13T12:34:50.593Z,100968.27
2023-02-13T12:37:35.025Z,100961.22
2023-02-13T12:40:15.726Z,100955.48
2023-02-13T12:43:04.703Z,100951.09
2023-02-13T12:45:43.456Z,100950.33
2023-02-13T12:48:36.483Z,100949.58
2023-02-13T12:51:44.634Z,100948.95
2023-02-13T12:54:34.782Z,100951.43
2023-02-13T12:57:24.273Z,100950.00
2023-02-13T13:00:14.020Z,100945.56
2023-02-13T13:03:31.098Z,100942.91
2023-02-13T13:06:43.017Z,100942.60
2023-02-13T13:09:23.998Z,100937.98
2023-02-13T13:11:52.690Z,100935.95
2023-02-13T13:14:29.792Z,100932.86
2023-02-13T13:17:31.968Z,100935.64
2023-02-13T13:20:46.200Z,100934.50
2023-02-13T13:23:49.862Z,100936.08
2023-02-13T13:26:38.829Z,100933.60
2023-02-13T13:29:17.530Z,100928.44
2023-02-13T13:32:02.618Z,100930.21
2023-02-13T13:34:40.437Z,100925.16
2023-02-13T13:37:21.090Z,100922.70
2023-02-13T13:40:24.636Z,100918.21
2023-02-13T13:43:08.270Z,100915.56
2023-02-13T13:46:15.244Z,100911.91
2023-02-13T13:48:59.481Z,100906.29
2023-02-13T13:51:33.487Z,100904.06
2023-02-13T13:54:22.965Z,100903.44
2023-02-13T13:57:11.883Z,100905.58
2023-02-13T13:59:51.610Z,100905.17
2023-02-13T14:02:40.881Z,100907.80
2023-02-13T14:05:43.278Z,100905.27
2023-02-13T14:08:56.135Z,100906.30
2023-02-13T14:11:39.403Z,100906.29
2023-02-13T14:14:50.613Z,100903.75
2023-02-13T14:18:12.075Z,100896.83
2023-02-13T14:21:08.226Z,100900.98
2023-02-13T14:24:04.130Z,100904.10
2023-02-13T14:26:45.626Z,100899.28
2023-02-13T14:29:40.197Z,100905.88
2023-02-13T14:32:40.859Z,100906.96
2023-02-13T14:35:24.892Z,100905.84
2023-02-13T14:38:07.369Z,100907.17
2023-02-13T14:40:54.292Z,100909.46
2023-02-13T14:43:34.000Z,100908.70
2023-02-13T14:46:35.998Z,100900.33
2023-02-13T14:49:22.187Z,100901.42
2023-02-13T14:51:55.841Z,100907.58
2023-02-13T14:54:36.948Z,100905.00
2023-02-13T14:57:25.086Z,100905.73
2023-02-13T15:00:09.245Z,100911.83
2023-02-13T15:02:46.926Z,100907.32
2023-02-13T15:05:22.269Z,100904.29
2023-02-13T15:08:18.014Z,100899.38
2023-02-13T15:10:49.574Z,100898.59
2023-02-13T15:13:42.505Z,100896.76
2023-02-13T15:16:14.503Z,100896.56
2023-02-13T15:18:47.462Z,100898.43
2023-02-13T15:21:33.053Z,100898.80
2023-02-13T15:24:03.777Z,100896.41
2023-02-13T15:26:35.623Z,100893.76
2023-02-13T15:29:17.423Z,100901.36
2023-02-13T15:31:53.115Z,100905.58
2023-02-13T15:34:36.162Z,100914.58
2023-02-13T15:37:04.573Z,100915.23
2023-02-13T15:39:32.892Z,100912.64
2023-02-13T15:42:04.082Z,100915.11
2023-02-13T15:44:38.620Z,100920.60
2023-02-13T15:47:26.041Z,100913.52
2023-02-13T15:49:54.645Z,100908.84
2023-02-13T15:52:36.922Z,100907.42
2023-02-13T15:55:05.712Z,100908.38
2023-02-13T15:57:34.650Z,100907.63
2023-02-13T16:00:18.715Z,100909.30
2023-02-13T16:02:48.242Z,100913.63
2023-02-13T16:05:38.331Z,100917.99
2023-02-13T16:08:36.212Z,100920.45
2023-02-13T16:11:28.756Z,100920.45
2023-02-13T16:14:03.080Z,100921.35
2023-02-13T16:16:36.730Z,100926.55
2023-02-13T16:19:05.261Z,100923.65
2023-02-13T16:21:35.980Z,100923.33
2023-02-13T16:24:07.777Z,100926.41
2023-02-13T16:26:39.231Z,100922.65
2023-02-13T16:29:17.545Z,100921.45
2023-02-13T16:31:46.746Z,100923.83
2023-02-13T16:34:22.010Z,100926.55
2023-02-13T16:36:53.759Z,100922.95
2023-02-13T16:39:31.304Z,100920.70
2023-02-13T16:42:01.573Z,100920.81
2023-02-13T16:44:35.391Z,100925.88
2023-02-13T16:47:06.280Z,100929.42
2023-02-13T16:49:36.958Z,100933.27
2023-02-13T16:52:15.019Z,100935.23
2023-02-13T16:54:54.920Z,100930.13
2023-02-13T16:57:34.614Z,100925.30
2023-02-13T17:00:08.685Z,100926.66
2023-02-13T17:02:41.704Z,100924.42
2023-02-13T17:05:09.897Z,100920.73
2023-02-13T17:07:41.714Z,100919.42
2023-02-13T17:10:18.986Z,100927.52
2023-02-13T17:12:47.888Z,100926.68
2023-02-13T17:15:24.888Z,100928.46
2023-02-13T17:17:59.876Z,100928.67
2023-02-13T17:20:31.474Z,100922.67
2023-02-13T17:23:02.579Z,100929.11
2023-02-13T17:25:33.502Z,100925.37
2023-02-13T17:28:14.350Z,100920.47
2023-02-13T17:30:50.168Z,100917.05
2023-02-13T17:33:23.416Z,100913.88
2023-02-13T17:35:54.476Z,100917.02
2023-02-13T17:38:25.778Z,100916.25
2023-02-13T17:40:57.298Z,100916.64
2023-02-13T17:43:30.085Z,100911.41
2023-02-13T17:46:01.438Z,100910.06
2023-02-13T17:48:34.858Z,100910.94
2023-02-13T17:51:04.078Z,100909.11
2023-02-13T17:53:39.942Z,100900.14
2023-02-13T17:56:08.226Z,100898.67
2023-02-13T17:58:39.426Z,100905.85
2023-02-13T18:01:13.106Z,100906.21
2023-02-13T18:03:41.432Z,100909.30
2023-02-13T18:06:15.924Z,100909.09
2023-02-13T18:08:47.613Z,100908.48
2023-02-13T18:11:26.314Z,100907.75
2023-02-13T18:13:54.431Z,100910.45
2023-02-13T18:16:25.299Z,100900.53
2023-02-13T18:18:56.471Z,100898.30
2023-02-13T18:21:33.599Z,100899.48
2023-02-13T18:24:10.980Z,100901.35
2023-02-13T18:26:45.227Z,100901.35
2023-02-13T18:29:26.476Z,100904.01
2023-02-13T18:32:08.087Z,100912.24
2023-02-13T18:34:40.458Z,100911.41
2023-02-13T18:37:14.621Z,100905.08
2023-02-13T18:39:43.068Z,100904.77
2023-02-13T18:42:13.814Z,100905.25
2023-02-13T18:44:44.999Z,100900.04
2023-02-13T18:47:17.741Z,100892.87
2023-02-13T18:49:52.212Z,100891.54
2023-02-13T18:52:20.550Z,100892.10
2023-02-13T18:54:49.328Z,100895.09
2023-02-13T18:57:17.611Z,100890.02
2023-02-13T18:59:45.997Z,100895.15
2023-02-13T19:02:16.907Z,100898.52
2023-02-13T19:04:45.189Z,100902.17
2023-02-13T19:07:13.533Z,100907.15
2023-02-13T19:09:42.048Z,100910.35
2023-02-13T19:12:10.287Z,100903.48
2023-02-13T19:14:39.508Z,100897.00
2023-02-13T19:17:09.526Z,100895.04
2023-02-13T19:19:38.209Z,100892.05
2023-02-13T19:22:06.422Z,100885.31
2023-02-13T19:24:34.950Z,100881.05
2023-02-13T19:27:03.215Z,100881.81
2023-02-13T19:29:33.980Z,100886.17
2023-02-13T19:32:02.386Z,100889.15
2023-02-13T19:34:31.085Z,100884.30
2023-02-13T19:36:59.333Z,100875.88
2023-02-13T19:39:27.650Z,100872.67
2023-02-13T19:41:56.078Z,100872.98
2023-02-13T19:44:24.306Z,100868.04
2023-02-13T19:46:55.023Z,100868.31
2023-02-13T19:49:23.267Z,100867.21
2023-02-13T19:51:54.365Z,100861.52
2023-02-13T19:54:22.757Z,100855.89
2023-02-13T19:56:51.328Z,100854.69
2023-02-13T19:59:22.161Z,100853.02
2023-02-13T20:01:50.567Z,100854.98
2023-02-13T20:04:19.124Z,100858.38
2023-02-13T20:06:49.246Z,100856.48
2023-02-13T20:09:17.351Z,100847.95
2023-02-13T20:11:45.587Z,100841.14
2023-02-13T20:14:15.199Z,100845.25
2023-02-13T20:16:45.754Z,100841.83
2023-02-13T20:19:14.220Z,100843.08
2023-02-13T20:21:43.498Z,100846.34
2023-02-13T20:24:12.404Z,100842.58
2023-02-13T20:26:41.751Z,100829.21
2023-02-13T20:29:09.963Z,100830.98
2023-02-13T20:31:41.420Z,100822.42
2023-02-13T20:34:13.212Z,100823.86
2023-02-13T20:36:41.476Z,100827.27
2023-02-13T20:39:14.070Z,100829.16
2023-02-13T20:41:42.618Z,100827.94
2023-02-13T20:44:13.366Z,100830.95
2023-02-13T20:46:41.751Z,100830.73
2023-02-13T20:49:12.083Z,100828.01
2023-02-13T20:51:42.723Z,100826.24
2023-02-13T20:54:13.446Z,100822.98
2023-02-13T20:56:46.088Z,100817.92
2023-02-13T20:59:14.203Z,100818.79
2023-02-13T21:01:44.078Z,100818.81
2023-02-13T21:04:14.779Z,100811.87
2023-02-13T21:06:46.579Z,100817.77
2023-02-13T21:09:18.279Z,100819.22
2023-02-13T21:11:49.565Z,100820.02
2023-02-13T21:14:20.361Z,100829.41
2023-02-13T21:16:48.579Z,100834.50
2023-02-13T21:19:21.316Z,100837.05
2023-02-13T21:21:49.611Z,100843.08
2023-02-13T21:24:21.230Z,100838.73
2023-02-13T21:26:52.575Z,100832.80
2023-02-13T21:29:21.135Z,100837.39
2023-02-13T21:31:53.176Z,100834.48
2023-02-13T21:34:21.445Z,100837.95
2023-02-13T21:36:49.794Z,100841.28
2023-02-13T21:39:20.470Z,100850.85
2023-02-13T21:41:48.970Z,100859.45
2023-02-13T21:44:20.464Z,100863.30
2023-02-13T21:46:48.839Z,100868.70
2023-02-13T21:49:18.586Z,100875.95
2023-02-13T21:51:52.246Z,100883.08
2023-02-13T21:54:23.643Z,100886.73
2023-02-13T21:56:59.229Z,100889.25
2023-02-13T21:59:30.881Z,100884.12
2023-02-13T22:02:03.989Z,100876.39
2023-02-13T22:04:37.920Z,100872.73
2023-02-13T22:07:11.000Z,100872.07
2023-02-13T22:09:39.363Z,100870.09
2023-02-13T22:12:07.641Z,100872.89
2023-02-13T22:14:44.477Z,100872.27
2023-02-13T22:17:22.324Z,100869.40
2023-02-13T22:19:52.904Z,100884.86
2023-02-13T22:22:21.066Z,100880.65
2023-02-13T22:24:49.200Z,100868.73
2023-02-13T22:27:17.706Z,100870.42
2023-02-13T22:29:45.857Z,100869.20
2023-02-13T22:32:14.360Z,100863.10
2023-02-13T22:34:43.011Z,100863.38
2023-02-13T22:37:12.713Z,100868.68
2023-02-13T22:39:40.922Z,100872.18
2023-02-13T22:42:09.193Z,100880.79
2023-02-13T22:44:37.532Z,100883.35
2023-02-13T22:47:07.274Z,100881.24
2023-02-13T22:49:36.149Z,100884.72
2023-02-13T22:52:04.913Z,100879.75
2023-02-13T22:54:35.397Z,100885.74
2023-02-13T22:57:04.281Z,100888.28
2023-02-13T22:59:38.715Z,100889.29
2023-02-13T23:02:08.461Z,100892.14
2023-02-13T23:04:36.795Z,100875.59
2023-02-13T23:07:05.021Z,100883.48
2023-02-13T23:09:33.242Z,100885.40
2023-02-13T23:12:20.316Z,100869.77
2023-02-13T23:14:51.662Z,100873.53
2023-02-13T23:17:38.480Z,100867.95
2023-02-13T23:20:08.152Z,100861.67
2023-02-13T23:22:36.444Z,100854.32
2023-02-13T23:25:06.155Z,100847.55
2023-02-13T23:27:35.441Z,100840.63
2023-02-13T23:30:08.425Z,100839.31
2023-02-13T23:32:36.900Z,100835.33
2023-02-13T23:35:05.321Z,100830.23
2023-02-13T23:37:36.669Z,100834.27
2023-02-13T23:40:09.689Z,100838.20
2023-02-13T23:42:38.105Z,100829.50
2023-02-13T23:45:09.795Z,100826.25
2023-02-13T23:47:38.269Z,100830.13
2023-02-13T23:50:07.396Z,100827.66
2023-02-13T23:52:36.091Z,100823.75
2023-02-13T23:55:05.064Z,100819.34
2023-02-13T23:57:33.349Z,100818.92
